Terminal Aerodrome Forecast
Issued by NWS Atlanta, GA

Home | Current Version | Previous Version | Text Only | Print | Product List | Glossary On
Versions: 1 2 3 4 5 6 7 8 9 10 11 12 13 14 15 16 17 18 19 20 21 22 23 24 25 26 27 28 29 30 31 32 33 34 35
000
FTUS42 KFFC 120332 AAB
TAFATL
TAF AMD
KATL 120332Z 1204/1306 25007KT P6SM SCT250 WS020/27035KT
     FM121200 30012G20KT P6SM BKN200
     FM121400 31017G30KT P6SM BKN030
     FM122000 31017G28KT P6SM SCT030
     FM130000 31012G18KT P6SM SKC=

USA.gov is the U.S. government's official web portal to all federal, state and local government web resources and services.